createdAt,value
2023-02-01T00:00:14.960Z,98701.59
2023-02-01T00:02:44.481Z,98701.72
2023-02-01T00:05:14.050Z,98708.56
2023-02-01T00:07:43.705Z,98706.09
2023-02-01T00:10:16.553Z,98705.13
2023-02-01T00:12:45.535Z,98700.06
2023-02-01T00:15:15.408Z,98698.19
2023-02-01T00:17:44.904Z,98694.88
2023-02-01T00:20:14.796Z,98703.66
2023-02-01T00:22:44.335Z,98699.41
2023-02-01T00:25:16.020Z,98698.47
2023-02-01T00:27:45.524Z,98693.00
2023-02-01T00:30:18.359Z,98688.75
2023-02-01T00:32:47.803Z,98684.53
2023-02-01T00:35:17.735Z,98678.53
2023-02-01T00:37:48.267Z,98677.28
2023-02-01T00:40:20.904Z,98674.69
2023-02-01T00:42:50.702Z,98679.59
2023-02-01T00:45:20.712Z,98670.19
2023-02-01T00:47:50.753Z,98684.00
2023-02-01T00:50:20.652Z,98676.34
2023-02-01T00:52:50.459Z,98687.66
2023-02-01T00:55:20.699Z,98684.00
2023-02-01T00:57:49.599Z,98676.06
2023-02-01T01:00:22.210Z,98685.59
2023-02-01T01:02:52.416Z,98687.38
2023-02-01T01:05:21.534Z,98684.94
2023-02-01T01:07:50.503Z,98677.00
2023-02-01T01:10:23.147Z,98664.84
2023-02-01T01:12:53.226Z,98659.13
2023-02-01T01:15:23.183Z,98662.25
2023-02-01T01:17:52.571Z,98661.59
2023-02-01T01:20:22.910Z,98657.22
2023-02-01T01:22:52.995Z,98663.09
2023-02-01T01:25:24.225Z,98666.63
2023-02-01T01:27:54.384Z,98675.38
2023-02-01T01:30:24.349Z,98670.19
2023-02-01T01:32:55.832Z,98671.97
2023-02-01T01:35:25.758Z,98665.84
2023-02-01T01:37:55.736Z,98665.69
2023-02-01T01:40:26.924Z,98674.16
2023-02-01T01:42:57.678Z,98661.31
2023-02-01T01:45:30.425Z,98676.75
2023-02-01T01:48:04.443Z,98664.56
2023-02-01T01:50:41.230Z,98655.84
2023-02-01T01:53:17.120Z,98660.22
2023-02-01T01:55:52.639Z,98658.31
2023-02-01T01:58:26.987Z,98655.84
2023-02-01T02:00:58.550Z,98646.41
2023-02-01T02:03:36.071Z,98637.69
2023-02-01T02:06:15.071Z,98641.22
2023-02-01T02:08:44.592Z,98645.47
2023-02-01T02:11:19.934Z,98635.25
2023-02-01T02:13:56.728Z,98616.94
2023-02-01T02:16:54.831Z,98604.94
2023-02-01T02:20:22.906Z,98605.34
2023-02-01T02:23:35.438Z,98600.97
2023-02-01T02:27:03.849Z,98603.69
2023-02-01T02:30:19.101Z,98592.38
2023-02-01T02:33:48.002Z,98575.16
2023-02-01T02:36:34.327Z,98582.94
2023-02-01T02:39:16.410Z,98598.50
2023-02-01T02:42:18.869Z,98587.19
2023-02-01T02:45:13.081Z,98596.72
2023-02-01T02:47:53.437Z,98592.50
2023-02-01T02:50:49.902Z,98594.97
2023-02-01T02:53:43.867Z,98591.53
2023-02-01T02:56:32.509Z,98601.78
2023-02-01T02:59:19.317Z,98582.94
2023-02-01T03:02:06.215Z,98577.47
2023-02-01T03:04:36.942Z,98578.44
2023-02-01T03:07:37.308Z,98582.81
2023-02-01T03:10:13.372Z,98586.22
2023-02-01T03:12:58.360Z,98586.06
2023-02-01T03:15:36.611Z,98596.44
2023-02-01T03:18:17.717Z,98603.94
2023-02-01T03:20:54.400Z,98602.16
2023-02-01T03:23:31.368Z,98612.69
2023-02-01T03:26:05.784Z,98606.81
2023-02-01T03:28:39.979Z,98612.81
2023-02-01T03:31:11.167Z,98608.59
2023-02-01T03:33:41.096Z,98610.09
2023-02-01T03:36:28.089Z,98604.09
2023-02-01T03:39:08.693Z,98603.16
2023-02-01T03:41:44.441Z,98599.56
2023-02-01T03:44:21.845Z,98587.97
2023-02-01T03:46:56.424Z,98578.28
2023-02-01T03:49:32.115Z,98586.84
2023-02-01T03:52:02.575Z,98590.25
2023-02-01T03:54:35.657Z,98588.34
2023-02-01T03:57:15.117Z,98600.34
2023-02-01T03:59:47.624Z,98601.16
2023-02-01T04:02:17.038Z,98608.81
2023-02-01T04:04:46.901Z,98605.41
2023-02-01T04:07:18.124Z,98622.75
2023-02-01T04:09:48.613Z,98620.16
2023-02-01T04:12:18.266Z,98618.09
2023-02-01T04:14:48.210Z,98625.88
2023-02-01T04:17:17.622Z,98628.47
2023-02-01T04:19:47.516Z,98629.00
2023-02-01T04:22:16.993Z,98613.84
2023-02-01T04:24:48.429Z,98623.16
2023-02-01T04:27:18.407Z,98615.38
2023-02-01T04:29:47.811Z,98629.81
2023-02-01T04:32:17.889Z,98613.44
2023-02-01T04:34:48.296Z,98613.97
2023-02-01T04:37:17.295Z,98618.50
2023-02-01T04:39:49.021Z,98616.56
2023-02-01T04:42:19.080Z,98618.34
2023-02-01T04:44:49.300Z,98627.06
2023-02-01T04:47:19.349Z,98624.47
2023-02-01T04:49:49.216Z,98614.25
2023-02-01T04:52:19.304Z,98625.16
2023-02-01T04:54:50.699Z,98615.09
2023-02-01T04:57:20.753Z,98613.44
2023-02-01T04:59:50.776Z,98610.56
2023-02-01T05:02:20.971Z,98607.00
2023-02-01T05:04:51.660Z,98602.78
2023-02-01T05:07:21.863Z,98606.31
2023-02-01T05:09:52.781Z,98608.25
2023-02-01T05:12:39.411Z,98601.56
2023-02-01T05:15:13.972Z,98605.13
2023-02-01T05:17:42.953Z,98593.09
2023-02-01T05:20:15.515Z,98584.50
2023-02-01T05:22:44.482Z,98590.50
2023-02-01T05:25:15.638Z,98582.88
2023-02-01T05:27:46.436Z,98598.16
2023-02-01T05:30:16.458Z,98610.19
2023-02-01T05:32:47.111Z,98617.13
2023-02-01T05:35:18.739Z,98606.31
2023-02-01T05:37:48.086Z,98607.13
2023-02-01T05:40:19.776Z,98610.84
2023-02-01T05:42:49.409Z,98612.63
2023-02-01T05:45:19.425Z,98620.56
2023-02-01T05:47:51.451Z,98625.75
2023-02-01T05:50:22.194Z,98622.47
2023-02-01T05:52:51.928Z,98632.00
2023-02-01T05:55:23.516Z,98636.53
2023-02-01T05:57:53.645Z,98639.25
2023-02-01T06:00:27.045Z,98630.16
2023-02-01T06:02:56.835Z,98624.81
2023-02-01T06:05:26.614Z,98616.50
2023-02-01T06:07:56.195Z,98619.50
2023-02-01T06:10:26.804Z,98616.13
2023-02-01T06:12:58.335Z,98627.44
2023-02-01T06:15:27.594Z,98621.56
2023-02-01T06:17:56.961Z,98630.31
2023-02-01T06:20:26.322Z,98630.16
2023-02-01T06:22:55.346Z,98634.69
2023-02-01T06:25:26.952Z,98623.38
2023-02-01T06:27:56.050Z,98626.91
2023-02-01T06:30:25.817Z,98632.22
2023-02-01T06:32:55.765Z,98634.97
2023-02-01T06:35:25.295Z,98634.28
2023-02-01T06:37:55.481Z,98640.28
2023-02-01T06:40:26.788Z,98636.75
2023-02-01T06:42:56.853Z,98637.03
2023-02-01T06:45:26.723Z,98627.59
2023-02-01T06:47:56.907Z,98633.44
2023-02-01T06:50:27.194Z,98641.94
2023-02-01T06:52:58.267Z,98643.97
2023-02-01T06:55:30.351Z,98646.03
2023-02-01T06:57:59.485Z,98636.78
2023-02-01T07:00:29.975Z,98639.66
2023-02-01T07:03:02.219Z,98632.28
2023-02-01T07:05:33.033Z,98643.22
2023-02-01T07:08:02.743Z,98646.47
2023-02-01T07:10:33.731Z,98656.97
2023-02-01T07:13:04.107Z,98648.53
2023-02-01T07:15:34.932Z,98646.22
2023-02-01T07:18:04.647Z,98650.56
2023-02-01T07:20:35.147Z,98649.38
2023-02-01T07:23:04.136Z,98645.25
2023-02-01T07:25:38.091Z,98650.72
2023-02-01T07:28:08.190Z,98656.59
2023-02-01T07:30:37.845Z,98661.09
2023-02-01T07:33:07.108Z,98667.78
2023-02-01T07:35:37.251Z,98671.44
2023-02-01T07:38:07.513Z,98666.25
2023-02-01T07:40:37.786Z,98671.44
2023-02-01T07:43:09.337Z,98674.31
2023-02-01T07:45:39.476Z,98679.66
2023-02-01T07:48:08.016Z,98680.19
2023-02-01T07:50:38.103Z,98677.59
2023-02-01T07:53:09.015Z,98682.09
2023-02-01T07:55:40.904Z,98683.03
2023-02-01T07:58:10.515Z,98690.56
2023-02-01T08:00:57.130Z,98683.88
2023-02-01T08:03:26.770Z,98694.09
2023-02-01T08:05:58.173Z,98690.56
2023-02-01T08:08:29.220Z,98692.19
2023-02-01T08:11:03.245Z,98693.16
2023-02-01T08:13:33.212Z,98688.66
2023-02-01T08:16:04.166Z,98693.00
2023-02-01T08:18:34.548Z,98700.38
2023-02-01T08:21:08.315Z,98703.78
2023-02-01T08:23:39.636Z,98711.56
2023-02-01T08:26:15.962Z,98708.81
2023-02-01T08:28:49.178Z,98706.94
2023-02-01T08:31:21.302Z,98709.91
2023-02-01T08:33:53.164Z,98714.16
2023-02-01T08:36:24.395Z,98708.56
2023-02-01T08:38:54.829Z,98701.47
2023-02-01T08:41:28.334Z,98707.47
2023-02-01T08:43:58.790Z,98706.66
2023-02-01T08:46:29.396Z,98713.19
2023-02-01T08:48:59.294Z,98700.06
2023-02-01T08:51:28.962Z,98702.81
2023-02-01T08:53:59.121Z,98710.31
2023-02-01T08:56:30.845Z,98699.53
2023-02-01T08:59:00.912Z,98697.06
2023-02-01T09:01:31.704Z,98699.81
2023-02-01T09:04:02.178Z,98723.00
2023-02-01T09:06:32.841Z,98714.56
2023-02-01T09:09:02.907Z,98709.09
2023-02-01T09:11:34.220Z,98699.00
2023-02-01T09:14:04.247Z,98709.09
2023-02-01T09:16:33.583Z,98712.50
2023-02-01T09:21:54.869Z,98726.16
2023-02-01T09:24:23.978Z,98745.94
2023-02-01T09:26:55.645Z,98754.41
2023-02-01T09:29:25.742Z,98759.59
2023-02-01T09:32:03.363Z,98763.13
2023-02-01T09:34:34.798Z,98762.88
2023-02-01T09:37:05.166Z,98769.41
2023-02-01T09:39:34.876Z,98774.34
2023-02-01T09:42:21.760Z,98767.78
2023-02-01T09:45:17.424Z,98763.97
2023-02-01T09:47:55.319Z,98770.66
2023-02-01T09:50:36.476Z,98770.91
2023-02-01T09:53:13.733Z,98783.88
2023-02-01T09:55:47.625Z,98778.41
2023-02-01T09:58:25.072Z,98779.25
2023-02-01T10:00:59.736Z,98783.59
2023-02-01T10:03:33.064Z,98779.34
2023-02-01T10:06:33.318Z,98786.19
2023-02-01T10:09:43.841Z,98790.28
2023-02-01T10:13:08.469Z,98802.19
2023-02-01T10:16:01.374Z,98787.94
2023-02-01T10:18:55.641Z,98789.06
2023-02-01T10:21:49.388Z,98773.19
2023-02-01T10:24:45.302Z,98777.56
2023-02-01T10:27:24.568Z,98776.63
2023-02-01T10:30:01.124Z,98779.75
2023-02-01T10:32:37.225Z,98775.41
2023-02-01T10:35:16.104Z,98752.97
2023-02-01T10:37:48.229Z,98760.38
2023-02-01T10:40:23.671Z,98741.00
2023-02-01T10:42:56.881Z,98739.34
2023-02-01T10:45:32.840Z,98734.81
2023-02-01T10:48:06.994Z,98738.25
2023-02-01T10:50:42.149Z,98727.47
2023-02-01T10:53:20.872Z,98727.31
2023-02-01T10:55:53.203Z,98734.97
2023-02-01T10:58:28.886Z,98721.44
2023-02-01T11:01:04.566Z,98728.28
2023-02-01T11:03:42.893Z,98728.81
2023-02-01T11:06:29.011Z,98720.72
2023-02-01T11:09:02.840Z,98717.19
2023-02-01T11:11:31.963Z,98713.59
2023-02-01T11:14:11.613Z,98709.94
2023-02-01T11:16:42.207Z,98706.09
2023-02-01T11:19:19.134Z,98704.16
2023-02-01T11:21:56.373Z,98711.00
2023-02-01T11:24:30.485Z,98708.41
2023-02-01T11:27:02.284Z,98704.97
2023-02-01T11:29:40.890Z,98713.31
2023-02-01T11:32:12.760Z,98713.84
2023-02-01T11:34:50.890Z,98710.41
2023-02-01T11:37:26.138Z,98706.03
2023-02-01T11:40:01.504Z,98702.63
2023-02-01T11:42:33.782Z,98703.28
2023-02-01T11:45:23.815Z,98704.34
2023-02-01T11:47:56.250Z,98705.03
2023-02-01T11:50:40.526Z,98710.66
2023-02-01T11:53:35.135Z,98699.97
2023-02-01T11:56:21.042Z,98690.00
2023-02-01T11:59:31.609Z,98700.94
2023-02-01T12:02:27.113Z,98702.28
2023-02-01T12:05:17.853Z,98703.41
2023-02-01T12:08:24.706Z,98702.00
2023-02-01T12:11:42.025Z,98705.41
2023-02-01T12:14:50.778Z,98690.53
2023-02-01T12:17:49.130Z,98678.19
2023-02-01T12:21:23.271Z,98671.22
2023-02-01T12:24:19.370Z,98676.00
2023-02-01T12:27:05.776Z,98681.47
2023-02-01T12:30:00.564Z,98669.69
2023-02-01T12:32:51.560Z,98663.66
2023-02-01T12:35:47.059Z,98639.63
2023-02-01T12:38:42.080Z,98629.88
2023-02-01T12:41:47.400Z,98610.75
2023-02-01T12:44:30.355Z,98621.44
2023-02-01T12:47:06.348Z,98623.28
2023-02-01T12:49:51.838Z,98612.75
2023-02-01T12:52:29.041Z,98613.19
2023-02-01T12:55:10.194Z,98614.00
2023-02-01T12:57:45.941Z,98607.84
2023-02-01T13:00:27.300Z,98604.59
2023-02-01T13:03:08.007Z,98595.69
2023-02-01T13:05:53.106Z,98589.22
2023-02-01T13:08:28.751Z,98594.88
2023-02-01T13:11:09.092Z,98591.53
2023-02-01T13:13:56.619Z,98581.28
2023-02-01T13:16:31.184Z,98577.56
2023-02-01T13:19:19.207Z,98581.78
2023-02-01T13:21:57.459Z,98582.31
2023-02-01T13:24:39.221Z,98575.78
2023-02-01T13:27:13.880Z,98574.38
2023-02-01T13:29:56.790Z,98589.66
2023-02-01T13:33:53.513Z,98591.31
2023-02-01T13:36:53.534Z,98572.31
2023-02-01T13:39:53.346Z,98585.28
2023-02-01T13:42:28.230Z,98580.91
2023-02-01T13:45:07.051Z,98571.31
2023-02-01T13:47:43.224Z,98585.28
2023-02-01T13:50:27.948Z,98583.66
2023-02-01T13:53:01.278Z,98592.09
2023-02-01T13:55:36.472Z,98587.94
2023-02-01T13:58:32.020Z,98588.75
2023-02-01T14:01:38.476Z,98579.41
2023-02-01T14:04:30.444Z,98579.91
2023-02-01T14:07:01.318Z,98573.38
2023-02-01T14:09:40.288Z,98581.69
2023-02-01T14:13:06.283Z,98581.56
2023-02-01T14:15:37.053Z,98582.91
2023-02-01T14:18:58.596Z,98589.69
2023-02-01T14:21:33.736Z,98597.50
2023-02-01T14:24:23.612Z,98588.66
2023-02-01T14:26:55.839Z,98595.50
2023-02-01T14:29:34.858Z,98591.66
2023-02-01T14:32:11.906Z,98586.44
2023-02-01T14:34:55.724Z,98575.53
2023-02-01T14:37:32.616Z,98580.09
2023-02-01T14:40:06.358Z,98578.97
2023-02-01T14:42:46.786Z,98592.16
2023-02-01T14:45:52.448Z,98595.41
2023-02-01T14:48:48.283Z,98609.09
2023-02-01T14:51:21.519Z,98603.72
2023-02-01T14:53:52.487Z,98605.88
2023-02-01T14:56:24.491Z,98599.03
2023-02-01T14:59:05.788Z,98601.31
2023-02-01T15:01:40.457Z,98603.09
2023-02-01T15:04:16.090Z,98604.41
2023-02-01T15:06:51.472Z,98612.34
2023-02-01T15:09:28.001Z,98610.22
2023-02-01T15:12:00.664Z,98594.91
2023-02-01T15:14:32.564Z,98599.25
2023-02-01T15:17:02.822Z,98590.31
2023-02-01T15:19:33.910Z,98594.03
2023-02-01T15:22:05.529Z,98591.88
2023-02-01T15:24:34.714Z,98604.88
2023-02-01T15:27:08.739Z,98604.53
2023-02-01T15:29:38.840Z,98605.91
2023-02-01T15:32:07.773Z,98606.75
2023-02-01T15:34:56.348Z,98607.69
2023-02-01T15:37:26.298Z,98600.88
2023-02-01T15:40:23.543Z,98601.97
2023-02-01T15:42:57.265Z,98602.66
2023-02-01T15:45:33.003Z,98592.41
2023-02-01T15:48:04.548Z,98598.59
2023-02-01T15:50:34.889Z,98601.31
2023-02-01T15:53:07.242Z,98615.13
2023-02-01T15:55:43.162Z,98611.84
2023-02-01T15:58:21.608Z,98608.72
2023-02-01T16:00:54.991Z,98620.25
2023-02-01T16:03:37.925Z,98627.22
2023-02-01T16:06:12.051Z,98623.44
2023-02-01T16:08:56.355Z,98625.75
2023-02-01T16:11:32.274Z,98619.59
2023-02-01T16:14:02.482Z,98629.00
2023-02-01T16:16:32.023Z,98641.19
2023-02-01T16:19:01.698Z,98636.78
2023-02-01T16:21:30.924Z,98639.69
2023-02-01T16:24:06.704Z,98650.78
2023-02-01T16:26:38.526Z,98640.38
2023-02-01T16:29:09.972Z,98636.78
2023-02-01T16:31:42.338Z,98639.03
2023-02-01T16:34:19.875Z,98646.16
2023-02-01T16:36:53.386Z,98650.06
2023-02-01T16:39:26.098Z,98644.22
2023-02-01T16:41:57.950Z,98649.41
2023-02-01T16:44:28.332Z,98668.25
2023-02-01T16:46:56.976Z,98663.06
2023-02-01T16:49:27.712Z,98662.00
2023-02-01T16:52:01.678Z,98665.31
2023-02-01T16:54:32.816Z,98659.28
2023-02-01T16:57:03.049Z,98660.63
2023-02-01T16:59:32.610Z,98656.25
2023-02-01T17:02:00.972Z,98652.38
2023-02-01T17:04:30.675Z,98653.72
2023-02-01T17:06:59.859Z,98665.25
2023-02-01T17:09:28.864Z,98659.22
2023-02-01T17:11:59.119Z,98658.41
2023-02-01T17:14:28.696Z,98658.56
2023-02-01T17:16:59.161Z,98665.84
2023-02-01T17:19:29.343Z,98671.03
2023-02-01T17:21:59.863Z,98667.44
2023-02-01T17:24:46.574Z,98675.09
2023-02-01T17:27:19.824Z,98649.94
2023-02-01T17:29:49.770Z,98646.16
2023-02-01T17:32:22.085Z,98651.63
2023-02-01T17:34:51.201Z,98631.13
2023-02-01T17:37:29.083Z,98652.22
2023-02-01T17:39:58.639Z,98666.03
2023-02-01T17:42:31.692Z,98676.28
2023-02-01T17:45:04.413Z,98674.63
2023-02-01T17:47:34.838Z,98675.75
2023-02-01T17:50:04.873Z,98676.19
2023-02-01T17:52:36.699Z,98688.34
2023-02-01T17:55:23.278Z,98686.41
2023-02-01T17:57:54.052Z,98672.75
2023-02-01T18:00:24.758Z,98678.38
2023-02-01T18:02:53.687Z,98669.63
2023-02-01T18:05:30.391Z,98667.34
2023-02-01T18:07:59.431Z,98662.13
2023-02-01T18:10:28.537Z,98653.66
2023-02-01T18:12:59.678Z,98647.16
2023-02-01T18:15:29.807Z,98656.72
2023-02-01T18:17:59.575Z,98661.75
2023-02-01T18:20:29.551Z,98673.13
2023-02-01T18:22:58.695Z,98669.00
2023-02-01T18:25:30.356Z,98676.78
2023-02-01T18:28:01.239Z,98675.03
2023-02-01T18:30:35.882Z,98677.63
2023-02-01T18:33:05.733Z,98687.34
2023-02-01T18:35:35.523Z,98685.41
2023-02-01T18:38:04.553Z,98680.50
2023-02-01T18:40:37.071Z,98688.28
2023-02-01T18:43:12.126Z,98676.41
2023-02-01T18:45:43.342Z,98684.88
2023-02-01T18:48:15.054Z,98675.03
2023-02-01T18:50:47.027Z,98672.59
2023-02-01T18:53:20.063Z,98668.22
2023-02-01T18:55:50.621Z,98673.13
2023-02-01T18:58:21.908Z,98669.69
2023-02-01T19:00:52.200Z,98666.28
2023-02-01T19:03:23.408Z,98673.13
2023-02-01T19:05:54.565Z,98678.97
2023-02-01T19:08:25.305Z,98679.13
2023-02-01T19:10:55.200Z,98676.66
2023-02-01T19:13:31.550Z,98682.50
2023-02-01T19:16:01.189Z,98679.91
2023-02-01T19:18:31.381Z,98680.91
2023-02-01T19:21:07.432Z,98680.75
2023-02-01T19:23:37.405Z,98686.22
2023-02-01T19:26:12.798Z,98681.19
2023-02-01T19:28:45.415Z,98684.59
2023-02-01T19:31:15.243Z,98679.13
2023-02-01T19:33:45.511Z,98679.78
2023-02-01T19:36:14.564Z,98689.88
2023-02-01T19:38:45.113Z,98677.72
2023-02-01T19:41:14.369Z,98684.56
2023-02-01T19:43:45.167Z,98681.13
2023-02-01T19:46:15.197Z,98667.63
2023-02-01T19:48:44.848Z,98679.19
2023-02-01T19:51:14.705Z,98665.41
2023-02-01T19:53:44.162Z,98668.69
2023-02-01T19:56:13.833Z,98672.53
2023-02-01T19:58:45.259Z,98676.59
2023-02-01T20:01:15.516Z,98678.91
2023-02-01T20:03:45.900Z,98672.22
2023-02-01T20:06:14.731Z,98683.56
2023-02-01T20:08:45.764Z,98693.31
2023-02-01T20:11:17.327Z,98684.25
2023-02-01T20:13:47.275Z,98699.56
2023-02-01T20:16:17.499Z,98696.28
2023-02-01T20:18:47.907Z,98700.38
2023-02-01T20:21:19.008Z,98711.72
2023-02-01T20:23:47.976Z,98708.84
2023-02-01T20:26:21.649Z,98702.00
2023-02-01T20:28:52.374Z,98695.72
2023-02-01T20:31:21.879Z,98688.06
2023-02-01T20:33:51.404Z,98702.41
2023-02-01T20:36:20.472Z,98682.72
2023-02-01T20:38:49.543Z,98699.25
2023-02-01T20:41:19.235Z,98696.78
2023-02-01T20:43:49.018Z,98699.94
2023-02-01T20:46:20.796Z,98691.19
2023-02-01T20:48:52.297Z,98693.78
2023-02-01T20:51:23.124Z,98685.84
2023-02-01T20:53:54.301Z,98689.53
2023-02-01T20:56:24.537Z,98692.13
2023-02-01T20:58:54.150Z,98701.44
2023-02-01T21:01:24.654Z,98708.25
2023-02-01T21:03:53.976Z,98703.88
2023-02-01T21:06:22.871Z,98694.47
2023-02-01T21:08:52.804Z,98687.03
2023-02-01T21:11:22.617Z,98693.34
2023-02-01T21:13:51.625Z,98689.63
2023-02-01T21:16:24.607Z,98693.19
2023-02-01T21:18:54.681Z,98691.41
2023-02-01T21:21:23.704Z,98686.22
2023-02-01T21:23:53.335Z,98689.81
2023-02-01T21:26:24.939Z,98688.53
2023-02-01T21:28:56.706Z,98684.44
2023-02-01T21:31:28.311Z,98694.53
2023-02-01T21:33:57.743Z,98692.09
2023-02-01T21:36:31.082Z,98698.91
2023-02-01T21:39:04.320Z,98699.44
2023-02-01T21:41:52.457Z,98687.13
2023-02-01T21:44:22.176Z,98693.28
2023-02-01T21:46:52.279Z,98696.53
2023-02-01T21:49:21.634Z,98683.28
2023-02-01T21:51:50.799Z,98689.44
2023-02-01T21:54:20.254Z,98691.88
2023-02-01T21:56:49.886Z,98699.53
2023-02-01T21:59:18.953Z,98700.19
2023-02-01T22:01:48.096Z,98688.84
2023-02-01T22:04:19.026Z,98693.09
2023-02-01T22:06:48.517Z,98694.22
2023-02-01T22:09:21.854Z,98698.41
2023-02-01T22:11:52.651Z,98695.53
2023-02-01T22:14:24.062Z,98699.63
2023-02-01T22:16:53.274Z,98702.53
2023-02-01T22:19:24.553Z,98709.50
2023-02-01T22:21:54.042Z,98709.13
2023-02-01T22:24:24.230Z,98727.47
2023-02-01T22:26:53.299Z,98717.88
2023-02-01T22:29:24.308Z,98721.28
2023-02-01T22:31:54.644Z,98718.25
2023-02-01T22:34:25.553Z,98721.28
2023-02-01T22:36:56.364Z,98719.13
2023-02-01T22:39:27.057Z,98720.22
2023-02-01T22:41:56.028Z,98714.91
2023-02-01T22:44:26.348Z,98723.81
2023-02-01T22:46:55.837Z,98717.91
2023-02-01T22:49:27.395Z,98730.25
2023-02-01T22:51:58.139Z,98724.91
2023-02-01T22:54:28.318Z,98732.69
2023-02-01T22:56:57.683Z,98738.88
2023-02-01T22:59:26.955Z,98722.28
2023-02-01T23:01:56.474Z,98731.59
2023-02-01T23:04:27.860Z,98729.28
2023-02-01T23:06:57.328Z,98734.19
2023-02-01T23:09:28.462Z,98731.59
2023-02-01T23:11:57.914Z,98719.41
2023-02-01T23:14:28.510Z,98719.41
2023-02-01T23:16:59.658Z,98721.34
2023-02-01T23:19:31.083Z,98724.75
2023-02-01T23:22:00.488Z,98719.56
2023-02-01T23:24:30.660Z,98731.72
2023-02-01T23:27:00.237Z,98723.13
2023-02-01T23:29:31.290Z,98714.50
2023-02-01T23:32:01.414Z,98711.25
2023-02-01T23:34:31.245Z,98723.13
2023-02-01T23:37:00.363Z,98718.75
2023-02-01T23:39:29.971Z,98728.03
2023-02-01T23:42:02.121Z,98718.31
2023-02-01T23:44:30.355Z,98726.25
2023-02-01T23:47:02.032Z,98720.22
2023-02-01T23:49:32.844Z,98715.56
2023-02-01T23:52:01.882Z,98716.53
2023-02-01T23:54:31.417Z,98722.28
2023-02-01T23:56:59.869Z,98723.22
2023-02-01T23:59:31.527Z,98726.47
